Flight Track Log - Related Links

Times and Time Zones

All times are in EDT time to prevent confusion due to time zone crossing. See the N678MB flight status page for this flight to view local times or setup timezone preferences in your user account.

Time Position Orientation Groundspeed Altitude Reporting Facility
EDT Latitude Longitude Course Direction KTS MPH feet Rate Location/Type
Tue 11:50:16 AM 40.7825 -77.8258 132° Southeast 260 299 5,500  Level New York Center
Tue 11:51:15 AM 40.7406 -77.7586 129° Southeast 232 267 7,600 2,150 Climbing New York Center
Tue 11:52:16 AM 40.7006 -77.6942 129° Southeast 232 267 9,800 2,182 Climbing New York Center
Tue 11:53:00 AM 40.5201 -77.4799 133° Southeast  Level Estimated
Tue 11:53:16 AM 40.6586 -77.6244 128° Southeast 237 273 12,000  Level New York Center
Tue 11:54:00 AM 40.4940 -77.3917 111° Southeast  Level FlightAware Approximate
Tue 11:54:17 AM 40.6200 -77.5711 134° Southeast 236 272 14,600  Level New York Center
Tue 11:55:17 AM 40.5839 -77.5131 129° Southeast 201 231 16,700 1,831 Climbing New York Center
Tue 11:56:15 AM 40.5531 -77.4664 131° Southeast 193 222 18,200 1,513 Climbing New York Center
Tue 11:57:16 AM 40.5189 -77.4083 128° Southeast 193 222 19,700 1,190 Climbing New York Center
Tue 11:58:16 AM 40.4847 -77.3506 128° Southeast 193 222 20,600 645 Climbing New York Center
Tue 11:59:17 AM 40.4400 -77.2889 134° Southeast 229 264 21,000 202 Climbing New York Center
Tue 12:00:15 PM 40.3883 -77.2078 130° Southeast 261 300 21,000  Level New York Center
Tue 12:01:15 PM 40.3303 -77.1206 131° Southeast 292 336 21,000  Level New York Center
Tue 12:02:17 PM 40.2669 -77.0222 130° Southeast 317 365 21,000  Level New York Center
Tue 12:03:15 PM 40.1922 -76.9719 153° Southeast 317 365 21,000  Level New York Center
Tue 12:04:17 PM 40.0978 -76.9447 168° South 315 362 21,000  Level New York Center
Tue 12:05:17 PM 40.0097 -76.9178 167° South 321 369 21,000  Level New York Center
Tue 12:06:17 PM 39.9194 -76.8883 166° South 327 376 21,000  Level New York Center
Tue 12:07:15 PM 39.8311 -76.8617 167° South 332 382 21,000  Level New York Center
Tue 12:08:15 PM 39.7428 -76.8378 168° South 332 382 21,000  Level New York Center
Tue 12:09:00 PM 39.6761 -76.8156 166° South 331 381 21,000  Level Washington Center
Tue 12:10:00 PM 39.5953 -76.7925 168° South 336 387 21,000  Level Washington Center
Tue 12:10:58 PM 39.5058 -76.7642 166° South 336 387 21,000  Level Washington Center
Tue 12:11:58 PM 39.4144 -76.7386 168° South 336 387 21,000  Level Washington Center
Tue 12:13:00 PM 39.3419 -76.6811 148° Southeast 330 380 21,000  Level Washington Center
Tue 12:14:00 PM 39.2908 -76.5758 122° Southeast 311 358 21,000  Level Washington Center
Tue 12:14:58 PM 39.2417 -76.4706 121° Southeast 326 375 21,000 -203 Level Washington Center
Tue 12:15:58 PM 39.1881 -76.3575 121° Southeast 333 383 20,600 -934 Descending Washington Center
Tue 12:17:00 PM 39.1367 -76.2472 121° Southeast 347 399 19,100 -1,300 Descending Washington Center
Tue 12:17:58 PM 39.0892 -76.1425 120° Southeast 347 399 18,000 -1,160 Descending Washington Center
Tue 12:18:59 PM 39.0397 -76.0406 122° Southeast 342 394 16,800 -3,967 Descending Washington Center
Tue 12:19:59 PM 38.9900 -75.9389 122° Southeast 342 394 10,000 -893 Descending Washington Center
Tue 12:21:00 PM 38.9422 -75.8397 122° Southeast 337 388 15,000 2,017 Climbing Washington Center
Tue 12:21:58 PM 38.8944 -75.7411 122° Southeast 337 388 14,000 -1,271 Descending Washington Center
Tue 12:22:58 PM 38.8467 -75.6422 122° Southeast 332 382 12,500 -1,190 Descending Washington Center
Tue 12:23:59 PM 38.8028 -75.5597 124° Southeast 326 375 11,600 -885 Descending Washington Center

Login

Don't have an account? Register now (free) for customized features, flight alerts, and more!